createdAt,value
2023-05-14T00:01:39.150Z,97157.94
2023-05-14T00:04:26.037Z,97152.81
2023-05-14T00:07:12.949Z,97154.44
2023-05-14T00:10:00.020Z,97142.28
2023-05-14T00:12:46.893Z,97139.59
2023-05-14T00:15:34.507Z,97142.72
2023-05-14T00:18:21.504Z,97137.34
2023-05-14T00:21:08.351Z,97131.78
2023-05-14T00:23:55.244Z,97136.53
2023-05-14T00:26:42.071Z,97124.59
2023-05-14T00:29:28.850Z,97125.03
2023-05-14T00:32:15.766Z,97132.94
2023-05-14T00:35:04.337Z,97132.81
2023-05-14T00:37:51.210Z,97121.69
2023-05-14T00:40:38.108Z,97129.13
2023-05-14T00:43:25.941Z,97121.31
2023-05-14T00:46:12.881Z,97121.91
2023-05-14T00:48:59.842Z,97119.00
2023-05-14T00:51:47.100Z,97114.66
2023-05-14T00:54:34.857Z,97124.38
2023-05-14T00:57:22.071Z,97121.69
2023-05-14T01:00:09.384Z,97123.53
2023-05-14T01:02:56.319Z,97125.63
2023-05-14T01:05:46.326Z,97129.56
2023-05-14T01:09:10.339Z,97120.94
2023-05-14T01:12:13.208Z,97118.44
2023-05-14T01:15:12.533Z,97121.56
2023-05-14T01:18:03.957Z,97122.38
2023-05-14T01:20:52.626Z,97118.06
2023-05-14T01:23:39.478Z,97116.44
2023-05-14T01:26:26.284Z,97119.13
2023-05-14T01:29:23.322Z,97116.63
2023-05-14T01:32:11.024Z,97116.63
2023-05-14T01:34:58.717Z,97116.06
2023-05-14T01:37:45.985Z,97115.25
2023-05-14T01:40:34.024Z,97111.75
2023-05-14T01:43:21.058Z,97098.53
2023-05-14T01:46:08.010Z,97104.72
2023-05-14T01:48:54.942Z,97104.94
2023-05-14T01:51:41.739Z,97104.94
2023-05-14T01:54:28.565Z,97097.56
2023-05-14T01:57:15.537Z,97098.81
2023-05-14T02:00:02.368Z,97098.22
2023-05-14T02:02:49.197Z,97098.44
2023-05-14T02:05:36.019Z,97100.72
2023-05-14T02:08:22.868Z,97101.75
2023-05-14T02:11:09.859Z,97100.72
2023-05-14T02:13:56.701Z,97102.34
2023-05-14T02:16:43.570Z,97095.13
2023-05-14T02:19:30.707Z,97094.94
2023-05-14T02:22:17.602Z,97095.13
2023-05-14T02:25:04.686Z,97089.16
2023-05-14T02:27:51.496Z,97089.00
2023-05-14T02:30:38.416Z,97090.03
2023-05-14T02:33:25.305Z,97079.53
2023-05-14T02:36:12.197Z,97092.13
2023-05-14T02:38:59.611Z,97090.03
2023-05-14T02:41:46.424Z,97095.41
2023-05-14T02:44:33.319Z,97092.13
2023-05-14T02:47:20.241Z,97085.72
2023-05-14T02:50:07.690Z,97083.25
2023-05-14T02:52:54.551Z,97080.56
2023-05-14T02:55:41.404Z,97081.03
2023-05-14T02:58:28.621Z,97076.09
2023-05-14T03:01:15.567Z,97075.72
2023-05-14T03:04:03.027Z,97073.03
2023-05-14T03:06:49.889Z,97066.84
2023-05-14T03:09:38.324Z,97068.50
2023-05-14T03:12:25.564Z,97065.19
2023-05-14T03:15:12.405Z,97064.38
2023-05-14T03:17:59.329Z,97068.91
2023-05-14T03:20:46.225Z,97058.44
2023-05-14T03:23:34.998Z,97064.00
2023-05-14T03:26:22.004Z,97067.34
2023-05-14T03:29:10.700Z,97068.00
2023-05-14T03:31:57.568Z,97059.34
2023-05-14T03:34:44.849Z,97061.22
2023-05-14T03:37:31.672Z,97061.22
2023-05-14T03:40:18.552Z,97063.06
2023-05-14T03:43:05.418Z,97065.13
2023-05-14T03:45:52.797Z,97060.81
2023-05-14T03:48:39.791Z,97055.69
2023-05-14T03:51:26.614Z,97048.47
2023-05-14T03:54:13.388Z,97056.72
2023-05-14T03:57:00.242Z,97057.75
2023-05-14T03:59:47.029Z,97054.25
2023-05-14T04:02:33.925Z,97052.63
2023-05-14T04:05:20.845Z,97061.69
2023-05-14T04:08:07.637Z,97054.47
2023-05-14T04:10:54.609Z,97056.94
2023-05-14T04:13:41.414Z,97056.72
2023-05-14T04:16:28.431Z,97060.00
2023-05-14T04:19:15.853Z,97051.16
2023-05-14T04:22:02.745Z,97048.25
2023-05-14T04:24:49.578Z,97058.75
2023-05-14T04:27:36.393Z,97052.56
2023-05-14T04:30:23.368Z,97041.84
2023-05-14T04:33:10.380Z,97051.75
2023-05-14T04:35:57.269Z,97050.91
2023-05-14T04:38:46.564Z,97049.28
2023-05-14T04:41:33.357Z,97044.97
2023-05-14T04:44:20.150Z,97049.72
2023-05-14T04:47:07.733Z,97045.19
2023-05-14T04:49:54.566Z,97050.53
2023-05-14T04:52:41.644Z,97042.50
2023-05-14T04:55:28.593Z,97047.84
2023-05-14T04:58:15.439Z,97048.91
2023-05-14T05:01:05.018Z,97043.53
2023-05-14T05:03:52.410Z,97054.25
2023-05-14T05:06:39.313Z,97055.91
2023-05-14T05:09:26.107Z,97054.25
2023-05-14T05:12:13.083Z,97058.56
2023-05-14T05:14:59.889Z,97061.06
2023-05-14T05:17:46.962Z,97048.25
2023-05-14T05:20:33.947Z,97059.78
2023-05-14T05:23:20.787Z,97048.84
2023-05-14T05:26:07.715Z,97059.34
2023-05-14T05:28:54.510Z,97051.09
2023-05-14T05:31:41.922Z,97051.69
2023-05-14T05:34:28.850Z,97050.88
2023-05-14T05:37:15.671Z,97050.66
2023-05-14T05:40:02.563Z,97047.75
2023-05-14T05:42:49.426Z,97047.75
2023-05-14T05:45:36.251Z,97047.75
2023-05-14T05:48:23.045Z,97041.59
2023-05-14T05:51:09.843Z,97047.53
2023-05-14T05:53:56.667Z,97044.84
2023-05-14T05:56:43.566Z,97051.03
2023-05-14T05:59:30.654Z,97055.38
2023-05-14T06:02:17.598Z,97037.63
2023-05-14T06:05:04.879Z,97042.56
2023-05-14T06:07:53.429Z,97042.34
2023-05-14T06:10:40.319Z,97049.13
2023-05-14T06:13:27.174Z,97055.91
2023-05-14T06:16:14.055Z,97046.00
2023-05-14T06:19:01.428Z,97056.72
2023-05-14T06:21:48.596Z,97050.31
2023-05-14T06:24:35.463Z,97050.13
2023-05-14T06:27:22.371Z,97047.19
2023-05-14T06:30:11.133Z,97043.50
2023-05-14T06:32:58.021Z,97049.44
2023-05-14T06:35:45.952Z,97047.16
2023-05-14T06:38:32.818Z,97040.53
2023-05-14T06:41:19.623Z,97039.06
2023-05-14T06:44:06.523Z,97029.34
2023-05-14T06:46:53.321Z,97033.44
2023-05-14T06:49:40.243Z,97035.44
2023-05-14T06:52:27.048Z,97025.09
2023-05-14T06:55:13.901Z,97027.94
2023-05-14T06:58:00.695Z,97033.69
2023-05-14T07:00:48.170Z,97037.56
2023-05-14T07:03:35.033Z,97038.31
2023-05-14T07:06:22.482Z,97039.50
2023-05-14T07:09:10.639Z,97041.28
2023-05-14T07:11:57.412Z,97042.25
2023-05-14T07:14:44.241Z,97035.63
2023-05-14T07:17:31.151Z,97044.84
2023-05-14T07:20:17.992Z,97046.47
2023-05-14T07:23:04.789Z,97048.97
2023-05-14T07:25:51.583Z,97040.09
2023-05-14T07:28:38.385Z,97038.00
2023-05-14T07:31:25.364Z,97031.59
2023-05-14T07:34:12.773Z,97026.00
2023-05-14T07:36:59.858Z,97028.69
2023-05-14T07:39:46.798Z,97015.25
2023-05-14T07:42:37.075Z,97016.06
2023-05-14T07:45:24.376Z,97012.34
2023-05-14T07:48:13.575Z,97023.91
2023-05-14T07:51:03.424Z,97018.53
2023-05-14T07:53:50.186Z,97027.19
2023-05-14T07:56:37.077Z,97014.94
2023-05-14T07:59:26.910Z,97020.69
2023-05-14T08:02:15.879Z,97018.59
2023-05-14T08:05:02.933Z,97002.25
2023-05-14T08:07:49.944Z,96996.44
2023-05-14T08:10:36.926Z,96996.56
2023-05-14T08:13:23.783Z,96988.66
2023-05-14T08:16:10.650Z,96982.59
2023-05-14T08:18:57.503Z,96991.63
2023-05-14T08:21:44.561Z,96988.25
2023-05-14T08:24:31.699Z,96983.03
2023-05-14T08:27:18.554Z,96977.00
2023-05-14T08:30:06.797Z,96978.72
2023-05-14T08:32:53.799Z,96970.56
2023-05-14T08:35:40.692Z,96965.34
2023-05-14T08:38:27.540Z,96957.97
2023-05-14T08:41:16.254Z,96954.16
2023-05-14T08:44:07.347Z,96953.78
2023-05-14T08:46:54.713Z,96948.53
2023-05-14T08:49:42.884Z,96941.97
2023-05-14T08:52:30.446Z,96940.81
2023-05-14T08:55:17.249Z,96953.91
2023-05-14T08:58:04.248Z,96951.91
2023-05-14T09:00:51.117Z,96952.38
2023-05-14T09:03:38.212Z,96951.91
2023-05-14T09:06:25.667Z,96951.81
2023-05-14T09:09:13.073Z,96948.66
2023-05-14T09:12:01.247Z,96946.31
2023-05-14T09:14:49.176Z,96945.81
2023-05-14T09:17:36.146Z,96940.22
2023-05-14T09:20:23.597Z,96937.25
2023-05-14T09:23:10.602Z,96931.66
2023-05-14T09:25:57.475Z,96933.28
2023-05-14T09:28:44.802Z,96919.84
2023-05-14T09:31:33.127Z,96932.47
2023-05-14T09:34:30.772Z,96937.03
2023-05-14T09:37:17.539Z,96931.88
2023-05-14T09:40:09.123Z,96937.25
2023-05-14T09:42:56.194Z,96930.25
2023-05-14T09:45:43.081Z,96928.38
2023-05-14T09:48:30.027Z,96927.91
2023-05-14T09:51:21.000Z,96923.13
2023-05-14T09:54:08.217Z,96919.94
2023-05-14T09:56:55.814Z,96920.53
2023-05-14T09:59:42.788Z,96913.25
2023-05-14T10:02:38.854Z,96922.75
2023-05-14T10:05:26.856Z,96912.31
2023-05-14T10:08:18.587Z,96906.47
2023-05-14T10:11:11.010Z,96904.66
2023-05-14T10:14:00.584Z,96903.38
2023-05-14T10:16:50.043Z,96900.22
2023-05-14T10:19:37.434Z,96900.28
2023-05-14T10:22:27.843Z,96895.25
2023-05-14T10:25:14.800Z,96897.47
2023-05-14T10:28:02.511Z,96892.16
2023-05-14T10:30:50.372Z,96897.06
2023-05-14T10:33:50.522Z,96887.69
2023-05-14T10:36:38.735Z,96888.50
2023-05-14T10:39:40.548Z,96882.38
2023-05-14T10:42:35.906Z,96876.84
2023-05-14T10:45:22.908Z,96869.91
2023-05-14T10:48:09.769Z,96873.50
2023-05-14T10:50:57.196Z,96864.69
2023-05-14T10:53:44.139Z,96868.56
2023-05-14T10:56:30.936Z,96873.47
2023-05-14T10:59:17.965Z,96865.72
2023-05-14T11:02:34.996Z,96866.84
2023-05-14T11:05:21.906Z,96862.03
2023-05-14T11:08:08.821Z,96857.22
2023-05-14T11:10:56.209Z,96864.56
2023-05-14T11:13:43.020Z,96861.94
2023-05-14T11:16:30.987Z,96860.13
2023-05-14T11:19:21.674Z,96853.22
2023-05-14T11:22:08.565Z,96847.28
2023-05-14T11:24:55.523Z,96854.88
2023-05-14T11:27:44.657Z,96852.50
2023-05-14T11:30:31.526Z,96845.81
2023-05-14T11:33:18.962Z,96836.44
2023-05-14T11:36:06.088Z,96837.78
2023-05-14T11:38:52.962Z,96834.59
2023-05-14T11:41:45.652Z,96834.38
2023-05-14T11:44:32.808Z,96839.50
2023-05-14T11:47:21.374Z,96835.25
2023-05-14T11:50:09.527Z,96836.63
2023-05-14T11:52:57.454Z,96828.28
2023-05-14T11:55:46.350Z,96821.09
2023-05-14T11:58:33.853Z,96822.22
2023-05-14T12:01:20.757Z,96817.94
2023-05-14T12:04:07.795Z,96823.66
2023-05-14T12:06:54.999Z,96816.94
2023-05-14T12:09:48.984Z,96811.53
2023-05-14T12:12:39.223Z,96813.75
2023-05-14T12:15:26.821Z,96808.94
2023-05-14T12:18:22.974Z,96808.44
2023-05-14T12:21:12.014Z,96803.59
2023-05-14T12:24:02.021Z,96798.75
2023-05-14T12:26:50.065Z,96796.06
2023-05-14T12:29:38.863Z,96787.47
2023-05-14T12:32:26.411Z,96789.91
2023-05-14T12:35:13.312Z,96793.44
2023-05-14T12:38:00.506Z,96791.28
2023-05-14T12:40:47.672Z,96790.22
2023-05-14T12:43:34.468Z,96794.56
2023-05-14T12:46:21.557Z,96786.47
2023-05-14T12:49:08.444Z,96781.06
2023-05-14T12:52:07.930Z,96775.66
2023-05-14T12:55:02.137Z,96779.69
2023-05-14T12:57:49.025Z,96777.56
2023-05-14T13:00:35.892Z,96778.91
2023-05-14T13:03:22.949Z,96786.78
2023-05-14T13:06:09.824Z,96779.22
2023-05-14T13:08:56.850Z,96783.81
2023-05-14T13:11:43.627Z,96772.19
2023-05-14T13:14:30.437Z,96773.81
2023-05-14T13:17:17.275Z,96762.47
2023-05-14T13:20:04.816Z,96769.50
2023-05-14T13:22:51.647Z,96767.63
2023-05-14T13:25:38.490Z,96763.03
2023-05-14T13:28:25.376Z,96761.72
2023-05-14T13:31:14.339Z,96763.59
2023-05-14T13:34:02.500Z,96759.00
2023-05-14T13:36:49.850Z,96758.75
2023-05-14T13:39:36.653Z,96761.22
2023-05-14T13:42:23.743Z,96750.41
2023-05-14T13:45:11.759Z,96754.50
2023-05-14T13:47:58.612Z,96753.66
2023-05-14T13:50:45.495Z,96749.34
2023-05-14T13:53:32.303Z,96743.63
2023-05-14T13:56:19.458Z,96735.00
2023-05-14T13:59:06.378Z,96732.22
2023-05-14T14:01:53.261Z,96732.44
2023-05-14T14:04:40.145Z,96738.34
2023-05-14T14:07:27.036Z,96740.94
2023-05-14T14:10:14.015Z,96743.25
2023-05-14T14:13:00.941Z,96740.81
2023-05-14T14:15:47.798Z,96744.75
2023-05-14T14:18:34.687Z,96747.19
2023-05-14T14:21:21.757Z,96755.13
2023-05-14T14:24:08.594Z,96747.78
2023-05-14T14:26:55.498Z,96741.03
2023-05-14T14:29:42.444Z,96748.81
2023-05-14T14:32:29.371Z,96753.88
2023-05-14T14:35:19.933Z,96751.88
2023-05-14T14:38:06.816Z,96752.22
2023-05-14T14:40:54.237Z,96755.25
2023-05-14T14:43:41.343Z,96752.00
2023-05-14T14:46:28.499Z,96746.34
2023-05-14T14:49:15.559Z,96751.09
2023-05-14T14:52:02.490Z,96747.44
2023-05-14T14:54:49.323Z,96751.31
2023-05-14T14:57:36.181Z,96750.91
2023-05-14T15:00:23.013Z,96762.31
2023-05-14T15:03:13.261Z,96767.78
2023-05-14T15:06:00.477Z,96765.91
2023-05-14T15:08:47.385Z,96766.50
2023-05-14T15:11:37.186Z,96762.47
2023-05-14T15:14:24.355Z,96768.44
2023-05-14T15:17:11.769Z,96767.63
2023-05-14T15:19:59.020Z,96774.63
2023-05-14T15:22:46.032Z,96775.72
2023-05-14T15:25:32.941Z,96774.91
2023-05-14T15:28:19.726Z,96774.91
2023-05-14T15:31:06.643Z,96773.28
2023-05-14T15:33:56.163Z,96777.59
2023-05-14T15:36:43.055Z,96777.88
2023-05-14T15:39:31.622Z,96774.31
2023-05-14T15:42:19.976Z,96770.00
2023-05-14T15:45:07.187Z,96771.09
2023-05-14T15:47:54.304Z,96777.56
2023-05-14T15:50:41.868Z,96775.91
2023-05-14T15:53:28.814Z,96773.47
2023-05-14T15:56:16.072Z,96769.16
2023-05-14T15:59:03.510Z,96772.91
2023-05-14T16:01:51.022Z,96769.38
2023-05-14T16:04:38.124Z,96776.69
2023-05-14T16:07:24.999Z,96775.06
2023-05-14T16:10:11.872Z,96769.91
2023-05-14T16:12:58.808Z,96776.09
2023-05-14T16:15:46.178Z,96767.19
2023-05-14T16:18:34.200Z,96769.91
2023-05-14T16:21:21.387Z,96766.38
2023-05-14T16:24:08.218Z,96761.00
2023-05-14T16:26:55.077Z,96760.19
2023-05-14T16:29:42.479Z,96754.78
2023-05-14T16:32:29.824Z,96753.69
2023-05-14T16:35:19.551Z,96747.50
2023-05-14T16:38:06.847Z,96748.31
2023-05-14T16:40:54.324Z,96748.06
2023-05-14T16:43:41.295Z,96748.06
2023-05-14T16:46:29.494Z,96748.06
2023-05-14T16:49:16.961Z,96750.78
2023-05-14T16:52:04.031Z,96738.91
2023-05-14T16:54:50.917Z,96749.44
2023-05-14T17:00:11.843Z,96748.63
2023-05-14T17:02:58.674Z,96745.69
2023-05-14T17:05:45.638Z,96745.69
2023-05-14T17:08:33.632Z,96742.97
2023-05-14T17:11:21.305Z,96755.41
2023-05-14T17:14:08.144Z,96745.69
2023-05-14T17:16:55.043Z,96748.09
2023-05-14T17:19:42.411Z,96748.09
2023-05-14T17:22:29.324Z,96746.22
2023-05-14T17:25:16.139Z,96751.63
2023-05-14T17:28:03.036Z,96753.50
2023-05-14T17:30:51.064Z,96754.31
2023-05-14T17:33:37.971Z,96746.50
2023-05-14T17:36:25.092Z,96752.69
2023-05-14T17:39:11.950Z,96751.88
2023-05-14T17:41:58.757Z,96754.00
2023-05-14T17:44:45.636Z,96756.16
2023-05-14T17:47:32.511Z,96759.09
2023-05-14T17:50:20.465Z,96748.56
2023-05-14T17:53:07.329Z,96750.47
2023-05-14T17:55:54.233Z,96748.00
2023-05-14T17:58:41.307Z,96753.41
2023-05-14T18:01:28.246Z,96751.78
2023-05-14T18:04:15.467Z,96746.66
2023-05-14T18:07:03.279Z,96743.09
2023-05-14T18:09:50.193Z,96739.03
2023-05-14T18:12:37.044Z,96746.53
2023-05-14T18:15:25.665Z,96739.78
2023-05-14T18:18:13.172Z,96735.72
2023-05-14T18:21:00.031Z,96722.16
2023-05-14T18:23:46.951Z,96736.47
2023-05-14T18:26:34.489Z,96729.69
2023-05-14T18:29:21.493Z,96732.09
2023-05-14T18:32:09.767Z,96727.19
2023-05-14T18:34:56.571Z,96730.16
2023-05-14T18:37:43.572Z,96714.47
2023-05-14T18:40:30.508Z,96723.59
2023-05-14T18:43:18.490Z,96723.88
2023-05-14T18:46:05.478Z,96718.16
2023-05-14T18:48:52.374Z,96715.97
2023-05-14T18:51:39.179Z,96715.91
2023-05-14T18:54:26.072Z,96719.13
2023-05-14T18:57:13.597Z,96718.00
2023-05-14T19:00:01.993Z,96720.59
2023-05-14T19:02:49.028Z,96723.81
2023-05-14T19:05:35.939Z,96721.38
2023-05-14T19:08:22.923Z,96728.06
2023-05-14T19:11:09.782Z,96723.50
2023-05-14T19:13:56.565Z,96729.41
2023-05-14T19:16:43.414Z,96733.13
2023-05-14T19:19:30.696Z,96738.25
2023-05-14T19:22:17.518Z,96731.94
2023-05-14T19:25:05.214Z,96743.81
2023-05-14T19:27:55.307Z,96739.13
2023-05-14T19:30:42.140Z,96731.59
2023-05-14T19:33:29.010Z,96731.00
2023-05-14T19:36:15.976Z,96735.00
2023-05-14T19:39:03.130Z,96735.75
2023-05-14T19:41:49.973Z,96734.00
2023-05-14T19:44:36.870Z,96727.47
2023-05-14T19:47:23.710Z,96733.34
2023-05-14T19:50:11.251Z,96735.50
2023-05-14T19:52:58.132Z,96738.94
2023-05-14T19:55:45.015Z,96736.47
2023-05-14T19:58:31.983Z,96745.63
2023-05-14T20:01:19.320Z,96736.75
2023-05-14T20:04:07.307Z,96740.47
2023-05-14T20:06:57.259Z,96733.72
2023-05-14T20:09:44.338Z,96740.41
2023-05-14T20:12:31.471Z,96736.56
2023-05-14T20:15:18.346Z,96735.19
2023-05-14T20:18:05.260Z,96733.56
2023-05-14T20:20:52.099Z,96731.94
2023-05-14T20:23:38.941Z,96731.34
2023-05-14T20:26:25.862Z,96735.34
2023-05-14T20:29:14.370Z,96729.63
2023-05-14T20:32:01.186Z,96730.97
2023-05-14T20:34:47.972Z,96725.00
2023-05-14T20:37:34.769Z,96733.31
2023-05-14T20:40:21.709Z,96731.66
2023-05-14T20:43:08.561Z,96730.84
2023-05-14T20:45:57.221Z,96727.03
2023-05-14T20:48:44.072Z,96731.28
2023-05-14T20:51:30.926Z,96726.16
2023-05-14T20:54:17.728Z,96736.31
2023-05-14T20:57:04.638Z,96734.69
2023-05-14T20:59:51.554Z,96737.41
2023-05-14T21:02:38.520Z,96729.53
2023-05-14T21:05:25.767Z,96723.34
2023-05-14T21:08:12.766Z,96724.41
2023-05-14T21:10:59.613Z,96727.59
2023-05-14T21:13:46.448Z,96731.56
2023-05-14T21:16:33.394Z,96732.56
2023-05-14T21:19:20.474Z,96723.09
2023-05-14T21:22:07.402Z,96720.06
2023-05-14T21:24:55.591Z,96725.13
2023-05-14T21:27:45.296Z,96717.78
2023-05-14T21:30:32.223Z,96718.25
2023-05-14T21:33:19.198Z,96716.28
2023-05-14T21:36:07.235Z,96713.25
2023-05-14T21:38:54.014Z,96720.53
2023-05-14T21:41:41.340Z,96716.16
2023-05-14T21:44:28.139Z,96715.84
2023-05-14T21:47:16.147Z,96709.09
2023-05-14T21:50:03.751Z,96719.00
2023-05-14T21:52:50.613Z,96723.34
2023-05-14T21:55:37.494Z,96721.69
2023-05-14T21:58:24.312Z,96713.88
2023-05-14T22:01:11.620Z,96721.34
2023-05-14T22:03:58.618Z,96711.13
2023-05-14T22:06:45.530Z,96709.72
2023-05-14T22:09:32.481Z,96713.69
2023-05-14T22:12:19.287Z,96709.59
2023-05-14T22:15:06.749Z,96705.06
2023-05-14T22:17:53.580Z,96708.56
2023-05-14T22:20:40.538Z,96703.66
2023-05-14T22:23:57.778Z,96702.72
2023-05-14T22:26:44.670Z,96702.50
2023-05-14T22:29:31.636Z,96700.84
2023-05-14T22:32:18.579Z,96710.25
2023-05-14T22:35:05.512Z,96702.66
2023-05-14T22:37:52.341Z,96687.59
2023-05-14T22:40:39.156Z,96689.47
2023-05-14T22:43:25.968Z,96684.09
2023-05-14T22:46:12.857Z,96687.59
2023-05-14T22:49:00.170Z,96685.94
2023-05-14T22:51:47.115Z,96673.69
2023-05-14T22:54:33.924Z,96683.56
2023-05-14T22:57:20.750Z,96678.31
2023-05-14T23:00:08.992Z,96677.03
2023-05-14T23:02:55.916Z,96669.13
2023-05-14T23:05:42.800Z,96670.31
2023-05-14T23:08:29.722Z,96668.00
2023-05-14T23:11:16.546Z,96660.28
2023-05-14T23:14:03.397Z,96650.69
2023-05-14T23:16:50.217Z,96651.84
2023-05-14T23:19:37.037Z,96655.94
2023-05-14T23:22:23.878Z,96650.34
2023-05-14T23:25:10.720Z,96653.84
2023-05-14T23:27:57.500Z,96639.59
2023-05-14T23:30:45.088Z,96643.91
2023-05-14T23:33:31.978Z,96635.25
2023-05-14T23:36:18.902Z,96629.31
2023-05-14T23:39:05.860Z,96630.13
2023-05-14T23:41:52.731Z,96621.47
2023-05-14T23:44:39.550Z,96621.75
2023-05-14T23:47:26.427Z,96606.69
2023-05-14T23:50:13.282Z,96605.84
2023-05-14T23:53:00.165Z,96610.88
2023-05-14T23:55:47.148Z,96602.47
2023-05-14T23:58:34.270Z,96603.53
